createdAt,value
2023-01-23T00:01:26.741Z,-3.30
2023-01-23T00:03:55.472Z,-3.40
2023-01-23T00:06:23.717Z,-3.40
2023-01-23T00:08:51.327Z,-3.40
2023-01-23T00:11:24.398Z,-3.40
2023-01-23T00:13:52.675Z,-3.40
2023-01-23T00:16:22.748Z,-3.40
2023-01-23T00:18:51.235Z,-3.40
2023-01-23T00:21:21.820Z,-3.40
2023-01-23T00:23:52.805Z,-3.40
2023-01-23T00:26:24.393Z,-3.50
2023-01-23T00:28:53.114Z,-3.50
2023-01-23T00:31:24.908Z,-3.60
2023-01-23T00:33:58.230Z,-3.60
2023-01-23T00:36:30.509Z,-3.70
2023-01-23T00:38:58.293Z,-2.60
2023-01-23T00:41:26.010Z,-3.70
2023-01-23T00:43:54.311Z,-3.70
2023-01-23T00:46:22.707Z,-3.70
2023-01-23T00:48:50.986Z,-3.70
2023-01-23T00:51:19.368Z,-3.70
2023-01-23T00:53:47.362Z,-3.80
2023-01-23T00:56:14.800Z,-3.80
2023-01-23T00:58:44.811Z,-4.60
2023-01-23T01:01:14.260Z,-3.80
2023-01-23T01:03:43.018Z,-3.80
2023-01-23T01:06:12.507Z,-3.80
2023-01-23T01:08:40.563Z,-3.80
2023-01-23T01:11:08.601Z,-3.80
2023-01-23T01:13:36.847Z,-3.90
2023-01-23T01:16:04.930Z,-3.80
2023-01-23T01:18:32.871Z,-3.90
2023-01-23T01:21:00.723Z,-3.90
2023-01-23T01:23:28.119Z,-3.90
2023-01-23T01:25:59.772Z,-4.00
2023-01-23T01:28:30.309Z,-3.90
2023-01-23T01:30:58.755Z,-3.90
2023-01-23T01:33:28.536Z,-4.00
2023-01-23T01:35:56.986Z,-4.00
2023-01-23T01:38:24.752Z,-2.60
2023-01-23T01:40:52.269Z,-4.00
2023-01-23T01:43:25.276Z,-4.00
2023-01-23T01:46:21.368Z,-4.00
2023-01-23T01:48:52.048Z,-4.00
2023-01-23T01:51:29.786Z,-4.00
2023-01-23T01:54:03.464Z,-4.00
2023-01-23T01:56:35.995Z,-4.00
2023-01-23T01:59:04.606Z,-4.00
2023-01-23T02:01:32.788Z,-4.10
2023-01-23T02:04:04.915Z,-4.00
2023-01-23T02:06:32.737Z,-4.00
2023-01-23T02:09:17.563Z,-4.10
2023-01-23T02:11:47.218Z,-4.10
2023-01-23T02:14:14.730Z,-4.10
2023-01-23T02:16:50.481Z,-4.20
2023-01-23T02:19:55.580Z,-4.20
2023-01-23T02:22:35.563Z,-4.20
2023-01-23T02:25:26.989Z,-4.20
2023-01-23T02:27:54.582Z,-4.20
2023-01-23T02:30:23.182Z,-4.20
2023-01-23T02:32:53.195Z,-3.90
2023-01-23T02:35:29.393Z,-4.20
2023-01-23T02:38:04.931Z,-4.30
2023-01-23T02:40:38.711Z,-4.20
2023-01-23T02:43:12.426Z,-4.20
2023-01-23T02:45:45.579Z,-3.60
2023-01-23T02:48:15.115Z,-4.20
2023-01-23T02:50:44.925Z,-4.20
2023-01-23T02:53:12.900Z,-3.30
2023-01-23T02:55:43.351Z,-3.50
2023-01-23T02:58:30.201Z,-4.30
2023-01-23T03:00:58.074Z,-4.30
2023-01-23T03:03:25.856Z,-4.30
2023-01-23T03:05:55.507Z,-4.30
2023-01-23T03:08:22.910Z,-3.50
2023-01-23T03:10:51.317Z,-4.30
2023-01-23T03:13:18.746Z,-4.30
2023-01-23T03:15:50.125Z,-4.30
2023-01-23T03:18:17.731Z,-4.30
2023-01-23T03:20:45.479Z,-4.30
2023-01-23T03:23:14.627Z,-3.10
2023-01-23T03:25:47.081Z,-4.30
2023-01-23T03:28:33.172Z,-4.30
2023-01-23T03:31:01.049Z,-4.30
2023-01-23T03:33:28.549Z,-4.20
2023-01-23T03:35:56.006Z,-4.00
2023-01-23T03:38:23.526Z,-4.20
2023-01-23T03:41:10.083Z,-4.20
2023-01-23T03:43:38.016Z,-4.10
2023-01-23T03:46:06.598Z,-4.10
2023-01-23T03:48:36.044Z,-4.10
2023-01-23T03:51:04.616Z,-4.00
2023-01-23T03:53:33.686Z,-3.90
2023-01-23T03:56:02.239Z,-3.90
2023-01-23T03:58:30.866Z,-3.80
2023-01-23T04:00:58.489Z,-3.90
2023-01-23T04:03:27.918Z,-3.90
2023-01-23T04:05:57.459Z,-3.90
2023-01-23T04:08:25.869Z,-3.90
2023-01-23T04:11:09.464Z,-3.90
2023-01-23T04:13:37.412Z,-2.20
2023-01-23T04:16:05.761Z,-3.90
2023-01-23T04:18:33.767Z,-3.90
2023-01-23T04:21:01.175Z,-4.00
2023-01-23T04:23:30.684Z,-4.00
2023-01-23T04:25:58.335Z,-4.00
2023-01-23T04:28:26.051Z,-4.00
2023-01-23T04:30:54.678Z,-3.90
2023-01-23T04:33:28.864Z,-3.90
2023-01-23T04:36:01.803Z,-3.90
2023-01-23T04:38:31.182Z,-3.80
2023-01-23T04:41:19.666Z,-3.70
2023-01-23T04:43:48.132Z,-3.70
2023-01-23T04:46:16.480Z,-3.60
2023-01-23T04:49:06.714Z,-3.50
2023-01-23T04:51:37.081Z,-3.40
2023-01-23T04:54:04.955Z,-3.40
2023-01-23T04:56:33.249Z,-3.30
2023-01-23T04:59:04.090Z,-3.30
2023-01-23T05:01:31.748Z,-3.30
2023-01-23T05:04:02.938Z,-3.30
2023-01-23T05:06:31.064Z,-3.30
2023-01-23T05:08:59.862Z,-3.30
2023-01-23T05:11:34.547Z,-3.30
2023-01-23T05:14:02.444Z,-3.30
2023-01-23T05:16:31.553Z,-2.40
2023-01-23T05:19:17.536Z,-3.30
2023-01-23T05:21:45.571Z,-3.40
2023-01-23T05:24:17.189Z,-3.40
2023-01-23T05:26:45.830Z,-3.50
2023-01-23T05:29:14.219Z,-3.50
2023-01-23T05:31:51.418Z,-3.50
2023-01-23T05:34:48.031Z,-3.60
2023-01-23T05:37:25.314Z,-3.60
2023-01-23T05:39:56.156Z,-3.70
2023-01-23T05:42:24.797Z,-3.70
2023-01-23T05:45:12.622Z,-3.80
2023-01-23T05:47:42.795Z,-3.80
2023-01-23T05:50:16.875Z,-3.80
2023-01-23T05:52:45.537Z,-3.80
2023-01-23T05:55:13.213Z,-3.90
2023-01-23T05:57:42.111Z,-3.90
2023-01-23T06:00:28.168Z,-3.90
2023-01-23T06:03:16.064Z,-3.90
2023-01-23T06:05:51.589Z,-3.90
2023-01-23T06:08:20.477Z,-3.80
2023-01-23T06:10:48.045Z,-3.80
2023-01-23T06:13:16.728Z,-3.70
2023-01-23T06:15:44.469Z,-3.70
2023-01-23T06:18:13.321Z,-3.70
2023-01-23T06:20:41.193Z,-3.60
2023-01-23T06:23:09.320Z,-3.70
2023-01-23T06:25:38.164Z,-3.70
2023-01-23T06:28:09.113Z,-3.70
2023-01-23T06:30:37.716Z,-3.70
2023-01-23T06:33:11.091Z,-3.80
2023-01-23T06:35:41.939Z,-3.70
2023-01-23T06:38:09.510Z,-3.70
2023-01-23T06:40:37.280Z,-3.70
2023-01-23T06:43:23.460Z,-3.80
2023-01-23T06:45:51.490Z,-3.70
2023-01-23T06:48:20.899Z,-3.70
2023-01-23T06:50:49.149Z,-3.70
2023-01-23T06:53:17.530Z,-3.70
2023-01-23T06:55:46.169Z,-3.70
2023-01-23T06:58:15.332Z,-3.70
2023-01-23T07:00:44.556Z,-3.70
2023-01-23T07:03:21.319Z,-3.70
2023-01-23T07:05:48.742Z,-3.80
2023-01-23T07:08:16.552Z,-1.60
2023-01-23T07:10:44.012Z,-3.00
2023-01-23T07:13:12.625Z,-1.60
2023-01-23T07:15:41.176Z,-4.10
2023-01-23T07:18:09.956Z,-4.30
2023-01-23T07:20:38.341Z,-4.00
2023-01-23T07:23:05.923Z,-4.10
2023-01-23T07:25:33.444Z,-4.10
2023-01-23T07:28:00.907Z,-4.20
2023-01-23T07:30:29.226Z,-4.20
2023-01-23T07:32:59.306Z,-4.20
2023-01-23T07:35:29.423Z,-4.20
2023-01-23T07:37:57.152Z,-2.20
2023-01-23T07:40:24.981Z,-4.20
2023-01-23T07:42:56.885Z,-4.30
2023-01-23T07:45:24.444Z,-4.30
2023-01-23T07:47:51.920Z,-4.30
2023-01-23T07:50:19.639Z,-4.30
2023-01-23T07:52:47.282Z,-4.30
2023-01-23T07:55:16.066Z,-4.30
2023-01-23T07:57:43.565Z,-4.30
2023-01-23T08:00:16.063Z,-4.30
2023-01-23T08:02:47.177Z,-4.30
2023-01-23T08:05:14.832Z,-2.30
2023-01-23T08:07:46.866Z,-4.40
2023-01-23T08:10:14.592Z,-4.60
2023-01-23T08:12:42.098Z,-4.90
2023-01-23T08:15:09.897Z,-4.40
2023-01-23T08:17:37.467Z,-4.30
2023-01-23T08:20:05.387Z,-4.30
2023-01-23T08:22:33.531Z,-4.20
2023-01-23T08:25:00.951Z,-4.20
2023-01-23T08:27:28.437Z,-4.20
2023-01-23T08:29:55.916Z,-4.20
2023-01-23T08:32:23.398Z,-4.20
2023-01-23T08:34:51.323Z,-4.20
2023-01-23T08:37:18.773Z,-3.50
2023-01-23T08:39:46.531Z,-4.20
2023-01-23T08:42:13.986Z,-4.20
2023-01-23T08:44:41.851Z,-4.10
2023-01-23T08:47:11.646Z,-4.10
2023-01-23T08:49:39.126Z,-4.10
2023-01-23T08:52:06.668Z,-4.00
2023-01-23T08:54:35.654Z,-4.10
2023-01-23T09:05:50.770Z,-2.20
2023-01-23T09:08:18.279Z,-2.30
2023-01-23T09:10:45.826Z,-3.90
2023-01-23T09:13:13.252Z,-3.90
2023-01-23T09:15:40.893Z,-3.70
2023-01-23T09:18:08.391Z,-3.70
2023-01-23T09:20:37.396Z,-3.60
2023-01-23T09:23:04.953Z,-3.60
2023-01-23T09:25:32.533Z,-3.50
2023-01-23T09:28:00.028Z,-3.40
2023-01-23T09:30:27.679Z,-3.30
2023-01-23T09:32:55.179Z,-3.30
2023-01-23T09:35:23.477Z,-3.20
2023-01-23T09:38:00.610Z,-3.10
2023-01-23T09:40:29.367Z,-2.90
2023-01-23T09:43:02.538Z,-3.00
2023-01-23T09:45:31.569Z,-3.00
2023-01-23T09:48:20.874Z,-2.90
2023-01-23T09:51:17.384Z,-2.90
2023-01-23T09:53:44.988Z,-2.80
2023-01-23T09:56:35.236Z,-2.80
2023-01-23T09:59:15.128Z,-2.70
2023-01-23T10:01:58.365Z,-2.60
2023-01-23T10:04:39.823Z,-2.50
2023-01-23T10:15:15.468Z,-2.00
2023-01-23T10:18:00.285Z,-1.80
2023-01-23T10:20:50.724Z,-1.70
2023-01-23T10:23:30.490Z,-1.60
2023-01-23T10:25:59.861Z,0.70
2023-01-23T10:28:38.026Z,-1.20
2023-01-23T10:31:24.597Z,-1.00
2023-01-23T10:34:05.396Z,-0.80
2023-01-23T10:36:54.113Z,-0.70
2023-01-23T10:39:44.044Z,0.50
2023-01-23T10:42:13.500Z,-0.40
2023-01-23T10:44:40.893Z,1.60
2023-01-23T10:47:50.013Z,-0.10
2023-01-23T10:50:48.138Z,0.00
2023-01-23T10:53:20.347Z,0.10
2023-01-23T10:55:50.741Z,0.10
2023-01-23T10:58:37.590Z,0.20
2023-01-23T11:01:09.577Z,0.30
2023-01-23T11:03:37.306Z,0.30
2023-01-23T11:06:09.066Z,0.30
2023-01-23T11:08:39.325Z,0.40
2023-01-23T11:11:15.745Z,0.40
2023-01-23T11:13:45.204Z,0.50
2023-01-23T11:16:23.517Z,0.60
2023-01-23T11:19:11.429Z,0.60
2023-01-23T11:21:55.264Z,0.70
2023-01-23T11:24:38.508Z,0.70
2023-01-23T11:27:26.503Z,0.70
2023-01-23T11:30:09.293Z,0.80
2023-01-23T11:32:56.402Z,2.10
2023-01-23T11:35:38.133Z,0.80
2023-01-23T11:38:06.023Z,1.60
2023-01-23T11:40:33.501Z,1.00
2023-01-23T11:43:00.932Z,1.10
2023-01-23T11:45:47.358Z,1.10
2023-01-23T11:48:32.346Z,1.20
2023-01-23T11:51:32.013Z,1.30
2023-01-23T11:54:22.202Z,1.40
2023-01-23T11:57:16.211Z,1.50
2023-01-23T11:59:53.023Z,1.60
2023-01-23T12:02:41.786Z,1.60
2023-01-23T12:05:24.950Z,1.60
2023-01-23T12:08:19.679Z,1.60
2023-01-23T12:10:51.057Z,1.60
2023-01-23T12:13:37.991Z,1.10
2023-01-23T12:16:24.791Z,3.80
2023-01-23T12:19:21.377Z,1.80
2023-01-23T12:21:51.777Z,1.80
2023-01-23T12:24:37.809Z,1.90
2023-01-23T12:27:16.738Z,2.00
2023-01-23T12:30:15.213Z,2.10
2023-01-23T12:33:06.617Z,2.20
2023-01-23T12:35:55.924Z,2.30
2023-01-23T12:38:25.391Z,2.30
2023-01-23T12:40:59.196Z,2.40
2023-01-23T12:44:04.353Z,2.50
2023-01-23T12:46:41.120Z,2.50
2023-01-23T12:49:23.704Z,2.50
2023-01-23T12:51:57.535Z,2.50
2023-01-23T12:54:38.261Z,3.10
2023-01-23T12:57:08.155Z,4.20
2023-01-23T12:59:47.666Z,3.40
2023-01-23T13:02:33.878Z,2.70
2023-01-23T13:05:15.671Z,2.70
2023-01-23T13:07:58.313Z,2.60
2023-01-23T13:11:01.692Z,2.80
2023-01-23T13:13:30.094Z,2.80
2023-01-23T13:16:17.906Z,2.80
2023-01-23T13:19:18.692Z,2.80
2023-01-23T13:22:05.883Z,2.80
2023-01-23T13:25:03.093Z,3.40
2023-01-23T13:27:59.475Z,2.80
2023-01-23T13:30:26.961Z,2.70
2023-01-23T13:33:00.580Z,2.70
2023-01-23T13:35:42.693Z,2.70
2023-01-23T13:38:38.833Z,2.70
2023-01-23T13:41:11.364Z,3.00
2023-01-23T13:43:44.326Z,2.80
2023-01-23T14:22:11.181Z,2.60
2023-01-23T14:24:52.693Z,2.60
2023-01-23T14:27:51.460Z,2.60
2023-01-23T14:30:26.237Z,2.50
2023-01-23T14:32:53.878Z,2.50
2023-01-23T14:35:29.686Z,2.50
2023-01-23T14:38:06.514Z,2.50
2023-01-23T14:40:48.966Z,2.50
2023-01-23T14:43:21.901Z,2.50
2023-01-23T14:46:01.981Z,3.90
2023-01-23T14:48:34.888Z,4.60
2023-01-23T14:51:17.331Z,2.40
2023-01-23T14:53:58.190Z,3.90
2023-01-23T14:56:37.744Z,2.40
2023-01-23T14:59:36.529Z,3.30
2023-01-23T15:02:34.968Z,4.60
2023-01-23T15:05:23.801Z,2.50
2023-01-23T15:08:10.233Z,2.50
2023-01-23T15:10:50.500Z,2.40
2023-01-23T15:13:22.529Z,3.10
2023-01-23T15:15:56.957Z,4.20
2023-01-23T15:18:29.575Z,2.70
2023-01-23T15:21:06.286Z,2.90
2023-01-23T15:23:41.886Z,2.40
2023-01-23T15:26:15.165Z,2.30
2023-01-23T15:28:53.061Z,2.40
2023-01-23T15:31:24.563Z,2.30
2023-01-23T15:33:52.311Z,2.30
2023-01-23T15:36:28.643Z,3.80
2023-01-23T15:38:58.433Z,2.30
2023-01-23T15:41:50.890Z,2.30
2023-01-23T15:44:21.912Z,2.30
2023-01-23T15:46:49.476Z,3.10
2023-01-23T15:49:25.345Z,2.30
2023-01-23T15:51:56.382Z,2.30
2023-01-23T15:54:28.729Z,2.30
2023-01-23T15:57:06.639Z,2.20
2023-01-23T15:59:36.189Z,2.20
2023-01-23T16:02:04.775Z,2.20
2023-01-23T16:04:32.719Z,2.20
2023-01-23T16:07:04.891Z,2.20
2023-01-23T16:09:35.643Z,2.20
2023-01-23T16:12:08.035Z,4.20
2023-01-23T16:14:36.482Z,2.20
2023-01-23T16:17:15.873Z,4.60
2023-01-23T16:19:44.367Z,2.20
2023-01-23T16:22:22.606Z,2.20
2023-01-23T16:24:50.323Z,2.20
2023-01-23T16:27:19.875Z,3.70
2023-01-23T16:29:49.432Z,2.10
2023-01-23T16:32:17.445Z,2.00
2023-01-23T16:34:45.131Z,2.10
2023-01-23T16:37:17.639Z,2.10
2023-01-23T16:39:46.355Z,2.00
2023-01-23T16:42:20.943Z,4.00
2023-01-23T16:44:49.078Z,2.00
2023-01-23T16:47:16.684Z,2.10
2023-01-23T16:49:52.043Z,2.10
2023-01-23T16:52:22.194Z,2.00
2023-01-23T16:54:52.413Z,2.10
2023-01-23T16:57:21.267Z,2.00
2023-01-23T16:59:50.016Z,2.10
2023-01-23T17:02:25.941Z,2.00
2023-01-23T17:04:53.508Z,2.00
2023-01-23T17:07:21.200Z,2.40
2023-01-23T17:09:49.331Z,1.90
2023-01-23T17:12:28.228Z,3.00
2023-01-23T17:14:56.369Z,2.10
2023-01-23T17:17:33.521Z,2.00
2023-01-23T17:20:04.406Z,2.00
2023-01-23T17:22:38.150Z,2.00
2023-01-23T17:25:13.632Z,2.00
2023-01-23T17:27:45.540Z,2.00
2023-01-23T17:30:25.235Z,2.00
2023-01-23T17:32:57.973Z,2.30
2023-01-23T17:35:34.275Z,2.00
2023-01-23T17:38:02.408Z,2.00
2023-01-23T17:40:30.196Z,2.00
2023-01-23T17:42:58.073Z,2.00
2023-01-23T17:45:27.416Z,2.00
2023-01-23T17:47:55.801Z,3.20
2023-01-23T17:50:25.615Z,3.90
2023-01-23T17:52:55.264Z,2.10
2023-01-23T17:55:28.340Z,3.70
2023-01-23T17:57:55.841Z,2.10
2023-01-23T18:00:24.640Z,2.00
2023-01-23T18:02:59.762Z,2.00
2023-01-23T18:05:27.708Z,2.10
2023-01-23T18:07:55.166Z,2.00
2023-01-23T18:10:28.282Z,3.50
2023-01-23T18:13:17.158Z,3.90
2023-01-23T18:16:06.052Z,2.00
2023-01-23T18:18:37.089Z,2.00
2023-01-23T18:21:07.357Z,2.00
2023-01-23T18:23:37.241Z,2.00
2023-01-23T18:26:20.264Z,2.00
2023-01-23T18:29:20.479Z,2.10
2023-01-23T18:31:53.842Z,2.10
2023-01-23T18:34:36.864Z,2.00
2023-01-23T18:37:18.765Z,2.70
2023-01-23T18:40:19.212Z,2.00
2023-01-23T18:43:17.207Z,2.10
2023-01-23T18:45:44.883Z,2.10
2023-01-23T18:48:24.977Z,2.10
2023-01-23T18:51:19.116Z,2.10
2023-01-23T18:54:21.589Z,2.10
2023-01-23T18:57:23.885Z,2.10
2023-01-23T19:00:14.554Z,2.10
2023-01-23T19:02:52.324Z,2.10
2023-01-23T19:05:27.961Z,2.10
2023-01-23T19:07:56.432Z,2.10
2023-01-23T19:10:32.483Z,2.10
2023-01-23T19:13:29.772Z,2.10
2023-01-23T19:16:03.510Z,2.10
2023-01-23T19:18:47.286Z,2.20
2023-01-23T19:21:14.769Z,2.20
2023-01-23T19:23:47.500Z,3.50
2023-01-23T19:26:16.461Z,2.20
2023-01-23T19:28:44.561Z,2.20
2023-01-23T19:31:21.538Z,2.20
2023-01-23T19:33:49.908Z,2.20
2023-01-23T19:36:17.901Z,2.20
2023-01-23T19:38:48.434Z,2.20
2023-01-23T19:41:19.501Z,2.50
2023-01-23T19:43:54.984Z,2.10
2023-01-23T19:46:28.143Z,2.20
2023-01-23T19:48:57.207Z,2.20
2023-01-23T19:51:28.938Z,3.20
2023-01-23T19:53:56.459Z,3.40
2023-01-23T19:56:24.005Z,2.10
2023-01-23T19:58:51.434Z,2.20
2023-01-23T20:01:45.490Z,2.10
2023-01-23T20:04:16.040Z,2.20
2023-01-23T20:06:45.568Z,2.50
2023-01-23T20:09:17.538Z,2.10
2023-01-23T20:11:46.830Z,2.10
2023-01-23T20:14:14.439Z,2.10
2023-01-23T20:16:43.296Z,2.30
2023-01-23T20:19:14.430Z,2.20
2023-01-23T20:21:42.452Z,2.10
2023-01-23T20:24:10.066Z,2.10
2023-01-23T20:26:38.044Z,2.50
2023-01-23T20:29:07.101Z,2.20
2023-01-23T20:31:35.757Z,4.60
2023-01-23T20:34:03.824Z,2.10
2023-01-23T20:36:31.383Z,4.60
2023-01-23T20:38:58.864Z,2.10
2023-01-23T20:41:26.353Z,2.20
2023-01-23T20:43:53.847Z,2.30
2023-01-23T20:46:21.478Z,2.70
2023-01-23T20:48:49.139Z,2.10
2023-01-23T20:51:17.422Z,2.20
2023-01-23T20:53:45.593Z,2.20
2023-01-23T20:56:27.357Z,2.20
2023-01-23T20:59:14.703Z,2.20
2023-01-23T21:02:14.602Z,2.60
2023-01-23T21:04:42.425Z,2.10
2023-01-23T21:07:09.917Z,2.20
2023-01-23T21:09:37.420Z,2.10
2023-01-23T21:12:05.676Z,2.90
2023-01-23T21:14:33.221Z,2.20
2023-01-23T21:17:00.804Z,2.20
2023-01-23T21:19:28.768Z,2.10
2023-01-23T21:21:56.344Z,2.10
2023-01-23T21:24:24.197Z,2.10
2023-01-23T21:26:52.442Z,2.10
2023-01-23T21:29:19.882Z,2.40
2023-01-23T21:31:49.831Z,2.20
2023-01-23T21:34:17.436Z,2.80
2023-01-23T21:36:45.103Z,3.20
2023-01-23T21:39:14.735Z,2.40
2023-01-23T21:41:42.512Z,3.00
2023-01-23T21:44:11.431Z,2.20
2023-01-23T21:46:39.070Z,3.00
2023-01-23T21:49:06.649Z,2.20
2023-01-23T21:51:34.540Z,2.20
2023-01-23T21:54:02.158Z,2.20
2023-01-23T21:56:29.554Z,2.20
2023-01-23T21:58:59.126Z,3.60
2023-01-23T22:01:33.449Z,2.20
2023-01-23T22:04:07.027Z,2.20
2023-01-23T22:06:36.958Z,2.20
2023-01-23T22:09:06.047Z,2.20
2023-01-23T22:11:33.911Z,2.80
2023-01-23T22:14:01.774Z,2.20
2023-01-23T22:16:47.031Z,2.20
2023-01-23T22:19:25.118Z,2.20
2023-01-23T22:21:54.777Z,2.30
2023-01-23T22:24:22.511Z,4.20
2023-01-23T22:26:50.112Z,2.30
2023-01-23T22:29:18.140Z,3.00
2023-01-23T22:31:46.645Z,2.60
2023-01-23T22:34:14.183Z,2.30
2023-01-23T22:36:41.629Z,4.20
2023-01-23T22:39:11.640Z,2.20
2023-01-23T22:41:39.070Z,2.30
2023-01-23T22:44:06.563Z,2.20
2023-01-23T22:46:34.106Z,2.20
2023-01-23T22:49:01.700Z,2.30
2023-01-23T22:51:29.253Z,3.60
2023-01-23T22:53:58.070Z,4.20
2023-01-23T22:56:27.253Z,2.20
2023-01-23T22:58:56.056Z,2.20
2023-01-23T23:01:24.600Z,2.30
2023-01-23T23:03:52.225Z,2.30
2023-01-23T23:06:20.390Z,2.20
2023-01-23T23:08:48.746Z,3.30
2023-01-23T23:11:19.937Z,2.30
2023-01-23T23:13:48.240Z,2.30
2023-01-23T23:16:24.688Z,2.90
2023-01-23T23:18:54.833Z,2.30
2023-01-23T23:21:25.264Z,3.60
2023-01-23T23:23:57.847Z,2.30
2023-01-23T23:26:27.556Z,2.60
2023-01-23T23:28:56.203Z,2.70
2023-01-23T23:31:24.107Z,2.40
2023-01-23T23:33:52.111Z,2.10
2023-01-23T23:36:19.789Z,2.30
2023-01-23T23:38:47.389Z,3.60
2023-01-23T23:41:15.967Z,2.30
2023-01-23T23:43:44.095Z,2.40
2023-01-23T23:46:12.092Z,2.30
2023-01-23T23:48:39.735Z,2.30
2023-01-23T23:51:09.269Z,2.30
2023-01-23T23:53:36.905Z,2.20
2023-01-23T23:56:05.869Z,2.20
2023-01-23T23:58:36.334Z,2.30
